createdAt,value
2018-06-28T00:00:57.392Z,20.09
2018-06-28T00:01:57.332Z,20.03
2018-06-28T00:02:57.273Z,20.07
2018-06-28T00:03:57.213Z,20.06
2018-06-28T00:04:57.155Z,20.06
2018-06-28T00:05:57.098Z,20.09
2018-06-28T00:06:57.040Z,20.09
2018-06-28T00:07:56.978Z,20.07
2018-06-28T00:08:56.988Z,20.00
2018-06-28T00:09:56.856Z,20.00
2018-06-28T00:10:56.795Z,20.06
2018-06-28T00:11:56.739Z,20.03
2018-06-28T00:12:56.679Z,20.02
2018-06-28T00:13:56.619Z,19.99
2018-06-28T00:14:56.567Z,19.96
2018-06-28T00:15:56.501Z,19.92
2018-06-28T00:16:56.457Z,19.88
2018-06-28T00:17:56.378Z,19.84
2018-06-28T00:18:56.317Z,19.88
2018-06-28T00:19:56.266Z,19.77
2018-06-28T00:20:56.199Z,19.85
2018-06-28T00:21:56.136Z,19.81
2018-06-28T00:22:56.081Z,19.67
2018-06-28T00:23:56.014Z,19.70
2018-06-28T00:24:55.966Z,19.73
2018-06-28T00:25:55.899Z,19.66
2018-06-28T00:26:55.836Z,19.70
2018-06-28T00:27:55.785Z,19.66
2018-06-28T00:28:55.717Z,19.70
2018-06-28T00:29:55.668Z,19.59
2018-06-28T00:30:55.599Z,19.67
2018-06-28T00:31:55.540Z,19.45
2018-06-28T00:32:55.479Z,19.48
2018-06-28T00:33:55.416Z,19.49
2018-06-28T00:34:55.356Z,19.49
2018-06-28T00:35:55.300Z,19.54
2018-06-28T00:36:55.238Z,19.51
2018-06-28T00:37:55.178Z,19.49
2018-06-28T00:38:55.118Z,19.52
2018-06-28T00:39:55.057Z,19.45
2018-06-28T00:40:55.000Z,19.48
2018-06-28T00:41:54.936Z,19.47
2018-06-28T00:42:54.878Z,19.47
2018-06-28T00:43:54.821Z,19.41
2018-06-28T00:44:54.759Z,19.39
2018-06-28T00:45:54.696Z,19.34
2018-06-28T00:46:54.635Z,19.30
2018-06-28T00:47:54.576Z,19.26
2018-06-28T00:48:54.526Z,19.24
2018-06-28T00:49:54.459Z,19.21
2018-06-28T00:50:54.398Z,19.26
2018-06-28T00:51:54.334Z,19.15
2018-06-28T00:52:54.281Z,19.19
2018-06-28T00:53:54.215Z,19.21
2018-06-28T00:54:54.152Z,19.21
2018-06-28T00:55:54.096Z,19.09
2018-06-28T00:56:54.034Z,19.12
2018-06-28T00:57:53.976Z,19.14
2018-06-28T00:58:53.921Z,19.14
2018-06-28T00:59:53.852Z,19.12
2018-06-28T01:00:53.794Z,19.19
2018-06-28T01:01:53.740Z,18.98
2018-06-28T01:02:53.675Z,19.02
2018-06-28T01:03:53.633Z,19.14
2018-06-28T01:04:53.551Z,19.15
2018-06-28T01:05:53.492Z,19.09
2018-06-28T01:06:53.430Z,19.08
2018-06-28T01:07:53.376Z,19.08
2018-06-28T01:08:53.310Z,19.04
2018-06-28T01:09:53.250Z,19.04
2018-06-28T01:10:53.192Z,19.00
2018-06-28T01:11:53.129Z,19.02
2018-06-28T01:12:53.070Z,19.07
2018-06-28T01:13:53.006Z,19.07
2018-06-28T01:14:52.947Z,19.04
2018-06-28T01:15:52.892Z,19.08
2018-06-28T01:16:52.829Z,19.08
2018-06-28T01:17:52.766Z,18.95
2018-06-28T01:18:52.708Z,18.98
2018-06-28T01:19:52.645Z,18.95
2018-06-28T01:20:52.583Z,18.90
2018-06-28T01:21:52.525Z,18.95
2018-06-28T01:22:52.468Z,18.90
2018-06-28T01:23:52.405Z,18.96
2018-06-28T01:24:53.196Z,18.95
2018-06-28T01:25:52.280Z,18.93
2018-06-28T01:26:52.224Z,18.89
2018-06-28T01:27:52.160Z,18.93
2018-06-28T01:28:52.101Z,18.89
2018-06-28T01:29:52.038Z,18.92
2018-06-28T01:30:51.982Z,18.90
2018-06-28T01:31:51.918Z,18.86
2018-06-28T01:32:51.859Z,18.86
2018-06-28T01:33:51.798Z,18.80
2018-06-28T01:34:51.738Z,18.70
2018-06-28T01:35:51.675Z,18.66
2018-06-28T01:36:51.627Z,18.73
2018-06-28T01:37:51.592Z,18.77
2018-06-28T01:38:51.493Z,18.73
2018-06-28T01:39:51.435Z,18.77
2018-06-28T01:40:51.372Z,18.81
2018-06-28T01:41:51.314Z,18.74
2018-06-28T01:42:51.251Z,18.70
2018-06-28T01:43:51.196Z,18.70
2018-06-28T01:44:51.133Z,18.66
2018-06-28T01:45:51.071Z,18.78
2018-06-28T01:46:51.023Z,18.70
2018-06-28T01:47:51.013Z,18.75
2018-06-28T01:48:50.889Z,18.59
2018-06-28T01:49:50.826Z,18.70
2018-06-28T01:50:50.768Z,18.73
2018-06-28T01:51:50.707Z,18.66
2018-06-28T01:52:50.660Z,18.73
2018-06-28T01:53:50.601Z,18.77
2018-06-28T01:54:50.525Z,18.66
2018-06-28T01:55:50.464Z,18.63
2018-06-28T01:56:50.403Z,18.66
2018-06-28T01:57:50.339Z,18.66
2018-06-28T01:58:50.280Z,18.63
2018-06-28T01:59:50.221Z,18.66
2018-06-28T02:00:50.160Z,18.62
2018-06-28T02:01:50.100Z,18.53
2018-06-28T02:02:50.039Z,18.52
2018-06-28T02:03:49.976Z,18.62
2018-06-28T02:04:49.916Z,18.56
2018-06-28T02:05:49.857Z,18.56
2018-06-28T02:06:49.796Z,18.55
2018-06-28T02:07:49.735Z,18.58
2018-06-28T02:08:49.700Z,18.58
2018-06-28T02:09:49.610Z,18.60
2018-06-28T02:10:49.553Z,18.68
2018-06-28T02:11:49.489Z,18.58
2018-06-28T02:12:49.429Z,18.58
2018-06-28T02:13:49.373Z,18.59
2018-06-28T02:14:49.313Z,18.53
2018-06-28T02:15:49.248Z,18.59
2018-06-28T02:16:49.192Z,18.60
2018-06-28T02:17:49.124Z,18.52
2018-06-28T02:18:49.066Z,18.49
2018-06-28T02:19:49.006Z,18.47
2018-06-28T02:20:48.946Z,18.41
2018-06-28T02:21:48.879Z,18.25
2018-06-28T02:22:48.829Z,18.28
2018-06-28T02:23:48.759Z,18.33
2018-06-28T02:24:48.703Z,18.23
2018-06-28T02:25:48.636Z,18.25
2018-06-28T02:26:48.580Z,18.22
2018-06-28T02:27:48.521Z,18.25
2018-06-28T02:28:48.462Z,18.31
2018-06-28T02:29:48.393Z,18.25
2018-06-28T02:30:48.338Z,18.28
2018-06-28T02:31:48.272Z,18.25
2018-06-28T02:32:48.213Z,18.35
2018-06-28T02:33:48.152Z,18.28
2018-06-28T02:34:48.093Z,18.23
2018-06-28T02:35:48.029Z,18.20
2018-06-28T02:36:47.973Z,18.23
2018-06-28T02:37:47.907Z,18.19
2018-06-28T02:38:47.848Z,18.22
2018-06-28T02:39:47.788Z,18.25
2018-06-28T02:40:47.736Z,18.25
2018-06-28T02:41:47.663Z,18.28
2018-06-28T02:42:47.606Z,18.33
2018-06-28T02:43:47.543Z,18.31
2018-06-28T02:44:47.479Z,18.26
2018-06-28T02:45:47.421Z,18.29
2018-06-28T02:46:47.359Z,18.35
2018-06-28T02:47:47.298Z,18.34
2018-06-28T02:48:47.241Z,18.35
2018-06-28T02:49:47.172Z,18.40
2018-06-28T02:50:47.113Z,18.34
2018-06-28T02:51:47.054Z,18.25
2018-06-28T02:52:46.990Z,18.23
2018-06-28T02:53:46.932Z,18.26
2018-06-28T02:54:46.871Z,18.28
2018-06-28T02:55:46.808Z,18.28
2018-06-28T02:56:46.751Z,18.18
2018-06-28T02:57:46.687Z,18.31
2018-06-28T02:58:46.631Z,18.25
2018-06-28T02:59:46.567Z,18.25
2018-06-28T03:00:46.510Z,18.22
2018-06-28T03:01:46.444Z,18.25
2018-06-28T03:02:46.382Z,18.23
2018-06-28T03:03:46.319Z,18.25
2018-06-28T03:04:46.257Z,18.20
2018-06-28T03:05:46.208Z,18.26
2018-06-28T03:06:46.161Z,18.23
2018-06-28T03:07:46.075Z,18.15
2018-06-28T03:08:46.022Z,18.19
2018-06-28T03:09:45.953Z,18.18
2018-06-28T03:10:45.896Z,18.08
2018-06-28T03:11:45.837Z,18.10
2018-06-28T03:12:45.773Z,18.13
2018-06-28T03:13:45.725Z,18.03
2018-06-28T03:14:45.679Z,17.97
2018-06-28T03:15:45.585Z,17.98
2018-06-28T03:16:45.525Z,18.01
2018-06-28T03:17:45.471Z,17.95
2018-06-28T03:18:45.404Z,17.95
2018-06-28T03:19:45.345Z,17.90
2018-06-28T03:20:45.286Z,17.87
2018-06-28T03:21:45.219Z,17.89
2018-06-28T03:22:45.168Z,17.98
2018-06-28T03:23:45.101Z,17.86
2018-06-28T03:24:45.038Z,17.90
2018-06-28T03:25:44.974Z,17.95
2018-06-28T03:26:44.913Z,17.95
2018-06-28T03:27:44.856Z,17.94
2018-06-28T03:28:44.792Z,17.97
2018-06-28T03:29:44.744Z,17.95
2018-06-28T03:30:44.756Z,17.97
2018-06-28T03:31:44.609Z,17.90
2018-06-28T03:32:44.548Z,18.03
2018-06-28T03:33:44.488Z,17.90
2018-06-28T03:34:44.426Z,17.94
2018-06-28T03:35:44.365Z,18.05
2018-06-28T03:36:44.304Z,18.10
2018-06-28T03:37:44.309Z,18.08
2018-06-28T03:38:44.186Z,18.03
2018-06-28T03:39:44.123Z,18.07
2018-06-28T03:40:44.060Z,18.07
2018-06-28T03:41:43.997Z,18.10
2018-06-28T03:42:43.932Z,18.13
2018-06-28T03:43:43.874Z,18.05
2018-06-28T03:44:43.813Z,18.00
2018-06-28T03:45:43.756Z,17.95
2018-06-28T03:46:43.719Z,18.00
2018-06-28T03:47:43.630Z,17.90
2018-06-28T03:48:43.569Z,17.87
2018-06-28T03:49:43.506Z,18.05
2018-06-28T03:50:43.445Z,18.11
2018-06-28T03:51:43.390Z,18.01
2018-06-28T03:52:43.326Z,18.00
2018-06-28T03:53:43.265Z,17.94
2018-06-28T03:54:43.202Z,17.95
2018-06-28T03:55:43.138Z,17.97
2018-06-28T03:56:43.077Z,18.03
2018-06-28T03:57:43.021Z,17.92
2018-06-28T03:58:42.958Z,17.92
2018-06-28T03:59:42.895Z,17.97
2018-06-28T04:00:42.838Z,17.89
2018-06-28T04:01:42.779Z,17.86
2018-06-28T04:02:42.730Z,17.87
2018-06-28T04:03:42.649Z,17.97
2018-06-28T04:04:42.589Z,18.00
2018-06-28T04:05:42.529Z,17.98
2018-06-28T04:06:42.494Z,17.97
2018-06-28T04:07:42.406Z,17.95
2018-06-28T04:08:42.346Z,17.95
2018-06-28T04:09:42.284Z,17.92
2018-06-28T04:10:42.222Z,17.90
2018-06-28T04:11:42.162Z,18.04
2018-06-28T04:12:42.103Z,18.05
2018-06-28T04:13:42.035Z,18.11
2018-06-28T04:14:41.977Z,18.16
2018-06-28T04:15:41.917Z,18.20
2018-06-28T04:16:41.870Z,18.25
2018-06-28T04:17:41.803Z,18.38
2018-06-28T04:18:41.756Z,18.25
2018-06-28T04:19:41.673Z,18.29
2018-06-28T04:20:41.615Z,18.34
2018-06-28T04:21:41.549Z,18.29
2018-06-28T04:22:41.491Z,18.25
2018-06-28T04:23:41.427Z,18.25
2018-06-28T04:24:41.366Z,18.22
2018-06-28T04:25:41.304Z,18.34
2018-06-28T04:26:41.251Z,18.34
2018-06-28T04:27:41.185Z,18.40
2018-06-28T04:28:41.123Z,18.43
2018-06-28T04:29:41.065Z,18.35
2018-06-28T04:30:41.001Z,18.34
2018-06-28T04:31:40.944Z,18.22
2018-06-28T04:32:40.880Z,18.23
2018-06-28T04:33:40.821Z,18.20
2018-06-28T04:34:40.783Z,18.22
2018-06-28T04:35:40.695Z,18.26
2018-06-28T04:36:40.633Z,18.22
2018-06-28T04:37:40.576Z,18.35
2018-06-28T04:38:40.516Z,18.38
2018-06-28T04:39:40.456Z,18.38
2018-06-28T04:40:40.393Z,18.40
2018-06-28T04:41:40.329Z,18.47
2018-06-28T04:42:40.267Z,18.40
2018-06-28T04:43:40.212Z,18.35
2018-06-28T04:44:40.152Z,18.40
2018-06-28T04:45:40.084Z,18.29
2018-06-28T04:46:40.024Z,18.35
2018-06-28T04:47:39.977Z,18.35
2018-06-28T04:48:39.903Z,18.37
2018-06-28T04:49:39.845Z,18.37
2018-06-28T04:50:39.782Z,18.49
2018-06-28T04:51:39.726Z,18.49
2018-06-28T04:52:39.663Z,18.62
2018-06-28T04:53:39.601Z,18.73
2018-06-28T04:54:39.538Z,18.68
2018-06-28T04:55:39.479Z,18.75
2018-06-28T04:56:39.417Z,18.73
2018-06-28T04:57:39.358Z,18.66
2018-06-28T04:58:39.295Z,18.80
2018-06-28T04:59:39.229Z,18.78
2018-06-28T05:00:39.174Z,18.93
2018-06-28T05:01:39.113Z,19.08
2018-06-28T05:02:39.053Z,19.07
2018-06-28T05:03:38.992Z,19.16
2018-06-28T05:04:38.934Z,19.21
2018-06-28T05:05:38.870Z,19.33
2018-06-28T05:06:38.815Z,19.33
2018-06-28T05:07:38.748Z,19.37
2018-06-28T05:08:38.691Z,19.41
2018-06-28T05:09:38.632Z,19.59
2018-06-28T05:10:38.576Z,19.89
2018-06-28T05:11:38.511Z,20.10
2018-06-28T05:12:38.450Z,20.24
2018-06-28T05:13:38.388Z,20.29
2018-06-28T05:14:38.326Z,20.40
2018-06-28T05:15:38.276Z,20.48
2018-06-28T05:16:38.207Z,20.58
2018-06-28T05:17:38.144Z,20.58
2018-06-28T05:18:38.092Z,20.51
2018-06-28T05:19:38.034Z,20.62
2018-06-28T05:20:37.979Z,20.44
2018-06-28T05:21:37.954Z,20.16
2018-06-28T05:22:37.846Z,20.07
2018-06-28T05:23:37.786Z,20.47
2018-06-28T05:24:37.725Z,20.92
2018-06-28T05:25:37.664Z,21.22
2018-06-28T05:26:37.604Z,21.40
2018-06-28T05:27:37.545Z,21.29
2018-06-28T05:28:37.484Z,21.00
2018-06-28T05:29:37.427Z,20.84
2018-06-28T05:30:37.367Z,20.81
2018-06-28T05:31:37.305Z,20.63
2018-06-28T05:32:37.252Z,20.47
2018-06-28T05:33:37.186Z,20.31
2018-06-28T05:34:37.132Z,20.18
2018-06-28T05:35:37.074Z,20.03
2018-06-28T05:36:37.008Z,19.94
2018-06-28T05:37:36.948Z,19.95
2018-06-28T05:38:36.885Z,20.06
2018-06-28T05:39:36.830Z,20.04
2018-06-28T05:40:36.767Z,20.03
2018-06-28T05:41:36.709Z,20.06
2018-06-28T05:42:36.650Z,20.02
2018-06-28T05:43:36.589Z,20.07
2018-06-28T05:44:36.528Z,20.19
2018-06-28T05:45:36.471Z,20.39
2018-06-28T05:46:36.410Z,20.44
2018-06-28T05:47:36.353Z,20.59
2018-06-28T05:48:36.294Z,20.51
2018-06-28T05:49:36.234Z,20.47
2018-06-28T05:50:36.168Z,20.32
2018-06-28T05:51:36.114Z,20.40
2018-06-28T05:52:36.053Z,20.32
2018-06-28T05:53:35.996Z,20.41
2018-06-28T05:54:35.932Z,20.40
2018-06-28T05:55:35.879Z,20.47
2018-06-28T05:56:35.820Z,20.50
2018-06-28T05:57:35.788Z,20.56
2018-06-28T05:58:35.700Z,20.55
2018-06-28T05:59:35.643Z,20.52
2018-06-28T06:00:35.577Z,20.70
2018-06-28T06:01:35.518Z,20.70
2018-06-28T06:02:35.457Z,20.72
2018-06-28T06:03:35.395Z,20.66
2018-06-28T06:04:35.338Z,20.66
2018-06-28T06:05:35.284Z,20.70
2018-06-28T06:06:35.221Z,20.75
2018-06-28T06:07:35.163Z,20.84
2018-06-28T06:08:35.107Z,20.90
2018-06-28T06:09:35.041Z,21.02
2018-06-28T06:10:34.979Z,21.11
2018-06-28T06:11:34.923Z,21.15
2018-06-28T06:12:34.870Z,21.17
2018-06-28T06:13:34.819Z,21.20
2018-06-28T06:14:34.747Z,21.20
2018-06-28T06:15:34.688Z,21.21
2018-06-28T06:16:34.636Z,21.18
2018-06-28T06:17:34.570Z,21.33
2018-06-28T06:18:34.512Z,21.29
2018-06-28T06:19:34.456Z,21.36
2018-06-28T06:20:34.393Z,21.40
2018-06-28T06:21:34.330Z,21.43
2018-06-28T06:22:34.271Z,21.39
2018-06-28T06:23:34.214Z,21.43
2018-06-28T06:24:34.153Z,21.51
2018-06-28T06:25:34.098Z,21.58
2018-06-28T06:26:34.052Z,21.57
2018-06-28T06:27:33.977Z,21.57
2018-06-28T06:28:33.921Z,21.54
2018-06-28T06:29:33.862Z,21.66
2018-06-28T06:30:33.797Z,21.66
2018-06-28T06:31:33.746Z,21.79
2018-06-28T06:32:33.685Z,21.88
2018-06-28T06:33:33.627Z,21.93
2018-06-28T06:34:33.565Z,21.92
2018-06-28T06:35:33.511Z,22.07
2018-06-28T06:36:33.449Z,22.04
2018-06-28T06:37:33.436Z,22.07
2018-06-28T06:38:33.351Z,22.08
2018-06-28T06:39:33.275Z,22.06
2018-06-28T06:40:33.219Z,21.91
2018-06-28T06:41:33.150Z,21.96
2018-06-28T06:42:33.101Z,22.07
2018-06-28T06:43:33.045Z,22.23
2018-06-28T06:44:32.985Z,22.25
2018-06-28T06:45:32.922Z,22.20
2018-06-28T06:46:32.866Z,22.26
2018-06-28T06:47:32.808Z,22.20
2018-06-28T06:48:32.750Z,22.22
2018-06-28T06:49:32.688Z,22.28
2018-06-28T06:50:32.631Z,22.17
2018-06-28T06:51:32.579Z,22.17
2018-06-28T06:52:32.527Z,22.25
2018-06-28T06:53:32.459Z,22.25
2018-06-28T06:54:32.398Z,22.29
2018-06-28T06:55:32.343Z,22.29
2018-06-28T06:56:32.281Z,22.33
2018-06-28T06:57:32.266Z,22.38
2018-06-28T06:58:32.164Z,22.29
2018-06-28T06:59:32.111Z,22.32
2018-06-28T07:00:32.058Z,22.39
2018-06-28T07:01:31.991Z,22.39
2018-06-28T07:02:31.937Z,22.45
2018-06-28T07:03:31.929Z,22.39
2018-06-28T07:04:31.883Z,22.33
2018-06-28T07:05:31.763Z,22.43
2018-06-28T07:06:31.702Z,22.53
2018-06-28T07:07:31.639Z,22.54
2018-06-28T07:08:31.584Z,22.53
2018-06-28T07:09:31.525Z,22.47
2018-06-28T07:10:31.554Z,22.68
2018-06-28T07:11:31.409Z,22.78
2018-06-28T07:12:31.353Z,22.84
2018-06-28T07:13:31.295Z,22.78
2018-06-28T07:14:31.233Z,22.85
2018-06-28T07:15:31.188Z,22.96
2018-06-28T07:16:31.117Z,22.94
2018-06-28T07:17:31.066Z,23.00
2018-06-28T07:18:31.015Z,23.00
2018-06-28T07:19:30.956Z,23.03
2018-06-28T07:20:30.890Z,23.03
2018-06-28T07:21:30.828Z,23.23
2018-06-28T07:22:30.770Z,23.24
2018-06-28T07:23:30.719Z,23.23
2018-06-28T07:24:30.657Z,23.23
2018-06-28T07:25:30.596Z,23.28
2018-06-28T07:26:30.541Z,23.32
2018-06-28T07:27:30.483Z,23.44
2018-06-28T07:28:30.521Z,23.44
2018-06-28T07:29:30.387Z,23.43
2018-06-28T07:30:30.312Z,23.31
2018-06-28T07:31:30.256Z,23.31
2018-06-28T07:32:30.201Z,23.44
2018-06-28T07:33:30.139Z,23.44
2018-06-28T07:34:30.094Z,23.44
2018-06-28T07:35:30.024Z,23.58
2018-06-28T07:36:29.994Z,23.59
2018-06-28T07:37:29.911Z,23.56
2018-06-28T07:38:29.852Z,23.56
2018-06-28T07:39:29.795Z,23.73
2018-06-28T07:40:29.740Z,23.59
2018-06-28T07:41:29.678Z,23.62
2018-06-28T07:42:29.660Z,23.66
2018-06-28T07:43:29.564Z,23.63
2018-06-28T07:44:29.512Z,23.69
2018-06-28T07:45:29.454Z,23.65
2018-06-28T07:46:29.399Z,23.76
2018-06-28T07:47:29.337Z,23.80
2018-06-28T07:48:29.278Z,23.87
2018-06-28T07:49:29.223Z,23.81
2018-06-28T07:50:29.166Z,23.86
2018-06-28T07:51:29.116Z,23.98
2018-06-28T07:52:29.059Z,23.95
2018-06-28T07:53:29.001Z,23.93
2018-06-28T07:54:28.979Z,23.95
2018-06-28T07:55:28.953Z,24.06
2018-06-28T07:56:28.830Z,24.18
2018-06-28T07:57:28.767Z,24.08
2018-06-28T07:58:28.708Z,24.18
2018-06-28T07:59:28.659Z,24.21
2018-06-28T08:00:28.599Z,24.24
2018-06-28T08:01:28.539Z,24.38
2018-06-28T08:02:28.480Z,24.40
2018-06-28T08:03:28.426Z,24.43
2018-06-28T08:04:28.367Z,24.48
2018-06-28T08:05:28.306Z,24.51
2018-06-28T08:06:28.325Z,24.55
2018-06-28T08:07:28.193Z,24.58
2018-06-28T08:08:28.139Z,24.58
2018-06-28T08:09:28.083Z,24.61
2018-06-28T08:10:28.025Z,24.55
2018-06-28T08:11:27.970Z,24.58
2018-06-28T08:12:27.924Z,24.60
2018-06-28T08:13:27.854Z,24.58
2018-06-28T08:14:27.807Z,24.63
2018-06-28T08:15:27.743Z,24.68
2018-06-28T08:16:27.685Z,24.69
2018-06-28T08:17:27.631Z,24.66
2018-06-28T08:18:27.578Z,24.80
2018-06-28T08:19:27.517Z,24.89
2018-06-28T08:20:27.463Z,24.86
2018-06-28T08:21:27.444Z,24.88
2018-06-28T08:22:27.350Z,24.77
2018-06-28T08:23:27.290Z,24.69
2018-06-28T08:24:27.233Z,24.74
2018-06-28T08:25:27.176Z,24.74
2018-06-28T08:26:27.120Z,24.69
2018-06-28T08:27:27.077Z,24.74
2018-06-28T08:28:27.027Z,24.65
2018-06-28T08:29:26.949Z,24.69
2018-06-28T08:30:26.892Z,24.84
2018-06-28T08:31:26.845Z,24.80
2018-06-28T08:32:26.780Z,24.88
2018-06-28T08:33:26.725Z,24.86
2018-06-28T08:34:26.668Z,24.95
2018-06-28T08:35:26.623Z,25.01
2018-06-28T08:36:26.558Z,24.88
2018-06-28T08:37:26.499Z,24.93
2018-06-28T08:38:26.440Z,24.93
2018-06-28T08:39:26.382Z,25.04
2018-06-28T08:40:26.328Z,25.04
2018-06-28T08:41:26.279Z,25.08
2018-06-28T08:42:26.217Z,25.10
2018-06-28T08:43:26.171Z,25.11
2018-06-28T08:44:26.110Z,25.08
2018-06-28T08:45:26.047Z,25.11
2018-06-28T08:46:25.991Z,25.16
2018-06-28T08:47:25.935Z,25.18
2018-06-28T08:48:25.882Z,25.17
2018-06-28T08:49:25.822Z,25.18
2018-06-28T08:50:25.766Z,25.28
2018-06-28T08:51:25.708Z,25.25
2018-06-28T08:52:25.650Z,25.33
2018-06-28T08:53:25.597Z,25.33
2018-06-28T08:54:25.584Z,25.50
2018-06-28T08:55:25.514Z,25.43
2018-06-28T08:56:25.457Z,25.48
2018-06-28T08:57:25.370Z,25.59
2018-06-28T08:58:25.318Z,25.60
2018-06-28T08:59:25.270Z,25.53
2018-06-28T09:00:25.206Z,25.53
2018-06-28T09:01:25.145Z,25.53
2018-06-28T09:02:25.084Z,25.59
2018-06-28T09:03:25.040Z,25.55
2018-06-28T09:04:24.976Z,25.44
2018-06-28T09:05:24.921Z,25.47
2018-06-28T09:06:24.873Z,25.55
2018-06-28T09:07:24.825Z,25.44
2018-06-28T09:08:24.753Z,25.53
2018-06-28T09:09:24.695Z,25.50
2018-06-28T09:10:24.638Z,25.65
2018-06-28T09:11:24.590Z,25.68
2018-06-28T09:12:24.528Z,25.66
2018-06-28T09:13:24.473Z,25.72
2018-06-28T09:14:24.420Z,25.72
2018-06-28T09:15:24.408Z,25.72
2018-06-28T09:16:24.311Z,25.83
2018-06-28T09:17:24.280Z,25.91
2018-06-28T09:18:24.204Z,25.88
2018-06-28T09:19:24.141Z,25.84
2018-06-28T09:20:24.085Z,25.84
2018-06-28T09:21:24.023Z,25.96
2018-06-28T09:22:23.973Z,26.00
2018-06-28T09:23:23.924Z,26.03
2018-06-28T09:24:23.870Z,26.09
2018-06-28T09:25:23.837Z,26.09
2018-06-28T09:26:23.751Z,26.15
2018-06-28T09:27:23.694Z,26.18
2018-06-28T09:28:23.638Z,26.18
2018-06-28T09:29:23.585Z,26.26
2018-06-28T09:30:23.525Z,26.31
2018-06-28T09:31:23.474Z,26.40
2018-06-28T09:32:23.416Z,26.38
2018-06-28T09:33:23.371Z,26.38
2018-06-28T09:34:23.319Z,26.44
2018-06-28T09:35:23.250Z,26.53
2018-06-28T09:36:23.194Z,26.51
2018-06-28T09:37:23.147Z,26.52
2018-06-28T09:38:23.093Z,26.62
2018-06-28T09:39:23.042Z,26.56
2018-06-28T09:40:22.976Z,26.77
2018-06-28T09:41:22.916Z,26.75
2018-06-28T09:42:22.860Z,26.85
2018-06-28T09:43:22.808Z,26.90
2018-06-28T09:44:22.753Z,26.97
2018-06-28T09:45:22.704Z,27.02
2018-06-28T09:46:22.650Z,27.12
2018-06-28T09:47:22.601Z,27.21
2018-06-28T09:48:22.564Z,27.30
2018-06-28T09:49:22.479Z,27.44
2018-06-28T09:50:22.430Z,27.52
2018-06-28T09:51:22.404Z,27.65
2018-06-28T09:52:22.328Z,27.64
2018-06-28T09:53:22.269Z,27.65
2018-06-28T09:54:22.220Z,27.51
2018-06-28T09:55:22.155Z,27.33
2018-06-28T09:56:22.130Z,27.35
2018-06-28T09:57:22.054Z,27.25
2018-06-28T09:58:22.030Z,27.15
2018-06-28T09:59:21.952Z,27.21
2018-06-28T10:00:21.970Z,27.21
2018-06-28T10:01:21.838Z,27.18
2018-06-28T10:02:21.784Z,27.32
2018-06-28T10:03:21.722Z,27.30
2018-06-28T10:04:21.666Z,27.32
2018-06-28T10:05:21.618Z,27.33
2018-06-28T10:06:21.567Z,27.21
2018-06-28T10:07:21.502Z,27.29
2018-06-28T10:08:21.448Z,27.26
2018-06-28T10:09:21.394Z,27.27
2018-06-28T10:10:21.346Z,27.29
2018-06-28T10:11:21.299Z,27.35
2018-06-28T10:12:21.232Z,27.30
2018-06-28T10:13:21.210Z,27.32
2018-06-28T10:14:21.120Z,27.51
2018-06-28T10:15:21.086Z,27.54
2018-06-28T10:16:21.016Z,27.58
2018-06-28T10:17:20.968Z,27.73
2018-06-28T10:18:20.912Z,27.70
2018-06-28T10:19:20.855Z,27.83
2018-06-28T10:20:20.800Z,27.83
2018-06-28T10:21:20.751Z,27.82
2018-06-28T10:22:20.689Z,27.82
2018-06-28T10:23:20.642Z,27.89
2018-06-28T10:24:20.613Z,27.89
2018-06-28T10:25:20.525Z,27.86
2018-06-28T10:26:20.478Z,28.05
2018-06-28T10:27:20.417Z,28.08
2018-06-28T10:28:20.392Z,28.12
2018-06-28T10:29:20.319Z,28.08
2018-06-28T10:30:20.264Z,28.07
2018-06-28T10:31:20.211Z,28.12
2018-06-28T10:32:20.182Z,28.14
2018-06-28T10:33:20.102Z,28.20
2018-06-28T10:34:20.050Z,28.17
2018-06-28T10:35:19.995Z,28.23
2018-06-28T10:36:19.940Z,28.35
2018-06-28T10:37:19.885Z,28.49
2018-06-28T10:38:19.829Z,28.49
2018-06-28T10:39:19.776Z,28.59
2018-06-28T10:40:19.732Z,28.81
2018-06-28T10:41:19.672Z,28.79
2018-06-28T10:42:19.622Z,28.98
2018-06-28T10:43:19.575Z,28.93
2018-06-28T10:44:19.513Z,28.84
2018-06-28T10:45:19.469Z,28.84
2018-06-28T10:46:19.406Z,28.89
2018-06-28T10:47:19.353Z,28.94
2018-06-28T10:48:19.307Z,28.81
2018-06-28T10:49:19.248Z,28.70
2018-06-28T10:50:19.215Z,28.76
2018-06-28T10:51:19.143Z,28.79
2018-06-28T10:52:19.090Z,28.76
2018-06-28T10:53:19.037Z,28.74
2018-06-28T10:54:18.987Z,28.67
2018-06-28T10:55:18.931Z,28.67
2018-06-28T10:56:18.886Z,28.67
2018-06-28T10:57:18.824Z,28.69
2018-06-28T10:58:18.772Z,28.59
2018-06-28T10:59:18.719Z,28.69
2018-06-28T11:00:18.662Z,28.75
2018-06-28T11:01:18.617Z,28.70
2018-06-28T11:02:18.564Z,28.78
2018-06-28T11:03:18.513Z,28.84
2018-06-28T11:04:18.458Z,29.10
2018-06-28T11:05:18.401Z,29.22
2018-06-28T11:06:18.352Z,29.38
2018-06-28T11:07:18.366Z,29.47
2018-06-28T11:08:18.272Z,29.57
2018-06-28T11:09:18.201Z,29.60
2018-06-28T11:10:18.151Z,29.54
2018-06-28T11:11:18.088Z,29.54
2018-06-28T11:12:18.037Z,29.57
2018-06-28T11:13:17.983Z,29.78
2018-06-28T11:14:17.931Z,29.79
2018-06-28T11:15:17.885Z,29.97
2018-06-28T11:16:17.845Z,30.03
2018-06-28T11:17:17.777Z,30.05
2018-06-28T11:18:17.727Z,30.08
2018-06-28T11:19:17.672Z,30.09
2018-06-28T11:20:17.625Z,30.15
2018-06-28T11:21:17.578Z,30.24
2018-06-28T11:22:18.433Z,30.28
2018-06-28T11:23:17.488Z,30.25
2018-06-28T11:24:17.433Z,30.37
2018-06-28T11:25:17.438Z,30.30
2018-06-28T11:26:17.323Z,30.48
2018-06-28T11:27:17.274Z,30.66
2018-06-28T11:28:24.864Z,30.72
2018-06-28T11:30:11.644Z,30.78
2018-06-28T11:31:11.466Z,30.84
2018-06-28T11:32:11.489Z,30.80
2018-06-28T11:33:11.361Z,30.70
2018-06-28T11:34:11.353Z,30.83
2018-06-28T11:35:11.269Z,30.88
2018-06-28T11:36:11.247Z,30.90
2018-06-28T11:37:11.172Z,30.92
2018-06-28T11:38:11.123Z,31.03
2018-06-28T11:39:11.080Z,31.20
2018-06-28T11:40:11.030Z,31.31
2018-06-28T11:41:10.984Z,31.43
2018-06-28T11:42:10.955Z,31.62
2018-06-28T11:43:10.891Z,31.46
2018-06-28T11:44:10.872Z,31.40
2018-06-28T11:45:10.803Z,31.54
2018-06-28T11:46:10.751Z,31.46
2018-06-28T11:47:10.702Z,31.55
2018-06-28T11:48:10.663Z,31.64
2018-06-28T11:49:10.609Z,31.78
2018-06-28T11:50:10.571Z,31.78
2018-06-28T11:51:10.525Z,31.66
2018-06-28T11:52:10.504Z,31.59
2018-06-28T11:53:10.432Z,31.55
2018-06-28T11:54:10.384Z,31.42
2018-06-28T11:55:10.347Z,31.25
2018-06-28T11:56:10.293Z,31.44
2018-06-28T11:57:10.252Z,31.84
2018-06-28T11:58:10.220Z,31.94
2018-06-28T11:59:10.160Z,32.01
2018-06-28T12:00:10.135Z,32.16
2018-06-28T12:01:10.072Z,32.26
2018-06-28T12:02:10.632Z,32.27
2018-06-28T12:03:09.987Z,32.23
2018-06-28T12:04:09.946Z,32.36
2018-06-28T12:05:09.909Z,32.33
2018-06-28T12:06:09.860Z,32.37
2018-06-28T12:07:09.812Z,32.73
2018-06-28T12:08:09.771Z,32.71
2018-06-28T12:09:09.724Z,32.52
2018-06-28T12:10:09.687Z,32.38
2018-06-28T12:11:09.645Z,32.21
2018-06-28T12:12:09.605Z,32.37
2018-06-28T12:13:09.559Z,32.52
2018-06-28T12:14:09.514Z,32.68
2018-06-28T12:15:09.472Z,32.64
2018-06-28T12:16:09.429Z,32.70
2018-06-28T12:17:09.386Z,32.85
2018-06-28T12:18:09.368Z,32.78
2018-06-28T12:19:09.310Z,32.90
2018-06-28T12:20:09.259Z,32.87
2018-06-28T12:21:09.229Z,32.83
2018-06-28T12:22:09.180Z,32.97
2018-06-28T12:23:09.170Z,33.15
2018-06-28T12:24:09.170Z,33.36
2018-06-28T12:25:09.058Z,33.47
2018-06-28T12:26:09.018Z,33.45
2018-06-28T12:27:08.974Z,33.55
2018-06-28T12:28:08.936Z,33.74
2018-06-28T12:29:08.902Z,33.71
2018-06-28T12:30:08.857Z,33.87
2018-06-28T12:31:08.822Z,33.89
2018-06-28T12:32:08.774Z,33.79
2018-06-28T12:33:08.740Z,33.69
2018-06-28T12:34:08.701Z,33.62
2018-06-28T12:35:08.670Z,33.24
2018-06-28T12:36:08.625Z,32.89
2018-06-28T12:37:08.570Z,32.70
2018-06-28T12:38:08.531Z,32.73
2018-06-28T12:39:08.540Z,33.02
2018-06-28T12:40:08.451Z,33.09
2018-06-28T12:41:08.400Z,32.90
2018-06-28T12:42:08.362Z,33.07
2018-06-28T12:43:08.358Z,33.23
2018-06-28T12:44:08.279Z,33.09
2018-06-28T12:45:08.235Z,33.27
2018-06-28T12:46:08.224Z,33.65
2018-06-28T12:47:08.157Z,33.59
2018-06-28T12:48:08.109Z,33.50
2018-06-28T12:49:08.063Z,33.64
2018-06-28T12:50:08.025Z,33.89
2018-06-28T12:51:07.976Z,34.10
2018-06-28T12:52:07.934Z,34.05
2018-06-28T12:53:07.889Z,33.98